sensor_id;sensor_type;location;lat;lon;timestamp;P1;durP1;ratioP1;P2;durP2;ratioP2
38358;SDS011;42072;48.044;14.416;2023-04-03T00:01:05;6.47;;;4.43;;
38358;SDS011;42072;48.044;14.416;2023-04-03T00:03:32;7.03;;;4.70;;
38358;SDS011;42072;48.044;14.416;2023-04-03T00:06:01;6.97;;;4.68;;
38358;SDS011;42072;48.044;14.416;2023-04-03T00:08:29;6.00;;;4.55;;
38358;SDS011;42072;48.044;14.416;2023-04-03T00:10:57;9.88;;;4.93;;
38358;SDS011;42072;48.044;14.416;2023-04-03T00:13:25;6.85;;;5.03;;
38358;SDS011;42072;48.044;14.416;2023-04-03T00:15:52;5.95;;;4.63;;
38358;SDS011;42072;48.044;14.416;2023-04-03T00:18:19;6.25;;;4.75;;
38358;SDS011;42072;48.044;14.416;2023-04-03T00:20:47;6.28;;;4.68;;
38358;SDS011;42072;48.044;14.416;2023-04-03T00:23:15;5.97;;;4.32;;
38358;SDS011;42072;48.044;14.416;2023-04-03T00:25:43;5.75;;;4.57;;
38358;SDS011;42072;48.044;14.416;2023-04-03T00:28:10;7.00;;;4.60;;
38358;SDS011;42072;48.044;14.416;2023-04-03T00:30:38;6.90;;;4.60;;
38358;SDS011;42072;48.044;14.416;2023-04-03T00:33:05;6.32;;;4.40;;
38358;SDS011;42072;48.044;14.416;2023-04-03T00:35:33;7.28;;;4.97;;
38358;SDS011;42072;48.044;14.416;2023-04-03T00:38:01;5.57;;;4.60;;
38358;SDS011;42072;48.044;14.416;2023-04-03T00:40:32;5.32;;;4.70;;
38358;SDS011;42072;48.044;14.416;2023-04-03T00:43:02;6.57;;;4.50;;
38358;SDS011;42072;48.044;14.416;2023-04-03T00:45:43;7.75;;;4.53;;
38358;SDS011;42072;48.044;14.416;2023-04-03T00:48:17;6.68;;;4.75;;
38358;SDS011;42072;48.044;14.416;2023-04-03T00:50:51;6.10;;;4.60;;
38358;SDS011;42072;48.044;14.416;2023-04-03T00:53:21;6.57;;;4.80;;
38358;SDS011;42072;48.044;14.416;2023-04-03T00:55:52;6.45;;;4.53;;
38358;SDS011;42072;48.044;14.416;2023-04-03T00:58:22;7.68;;;5.28;;
38358;SDS011;42072;48.044;14.416;2023-04-03T01:01:02;5.45;;;4.53;;
38358;SDS011;42072;48.044;14.416;2023-04-03T01:03:33;6.75;;;5.15;;
38358;SDS011;42072;48.044;14.416;2023-04-03T01:06:01;6.82;;;5.25;;
38358;SDS011;42072;48.044;14.416;2023-04-03T01:08:29;7.55;;;4.78;;
38358;SDS011;42072;48.044;14.416;2023-04-03T01:10:57;8.55;;;6.00;;
38358;SDS011;42072;48.044;14.416;2023-04-03T01:13:26;6.50;;;4.75;;
38358;SDS011;42072;48.044;14.416;2023-04-03T01:15:55;7.53;;;5.35;;
38358;SDS011;42072;48.044;14.416;2023-04-03T01:18:22;7.88;;;5.15;;
38358;SDS011;42072;48.044;14.416;2023-04-03T01:23:46;7.25;;;5.15;;
38358;SDS011;42072;48.044;14.416;2023-04-03T01:26:16;6.55;;;5.47;;
38358;SDS011;42072;48.044;14.416;2023-04-03T01:28:43;8.55;;;5.80;;
38358;SDS011;42072;48.044;14.416;2023-04-03T01:33:51;5.10;;;4.47;;
38358;SDS011;42072;48.044;14.416;2023-04-03T01:36:22;6.15;;;4.82;;
38358;SDS011;42072;48.044;14.416;2023-04-03T01:38:52;5.90;;;4.47;;
38358;SDS011;42072;48.044;14.416;2023-04-03T01:41:20;5.30;;;4.40;;
38358;SDS011;42072;48.044;14.416;2023-04-03T01:43:48;5.38;;;4.20;;
38358;SDS011;42072;48.044;14.416;2023-04-03T01:46:16;6.30;;;4.68;;
38358;SDS011;42072;48.044;14.416;2023-04-03T01:48:44;7.30;;;4.90;;
38358;SDS011;42072;48.044;14.416;2023-04-03T01:51:12;6.50;;;5.35;;
38358;SDS011;42072;48.044;14.416;2023-04-03T01:53:39;5.72;;;4.63;;
38358;SDS011;42072;48.044;14.416;2023-04-03T01:56:06;6.78;;;5.30;;
38358;SDS011;42072;48.044;14.416;2023-04-03T01:58:34;5.90;;;4.65;;
38358;SDS011;42072;48.044;14.416;2023-04-03T02:01:01;6.55;;;5.00;;
38358;SDS011;42072;48.044;14.416;2023-04-03T02:03:29;7.30;;;5.03;;
38358;SDS011;42072;48.044;14.416;2023-04-03T02:05:58;8.05;;;5.03;;
38358;SDS011;42072;48.044;14.416;2023-04-03T02:08:25;7.05;;;5.45;;
38358;SDS011;42072;48.044;14.416;2023-04-03T02:10:52;7.43;;;5.20;;
38358;SDS011;42072;48.044;14.416;2023-04-03T02:13:20;7.60;;;5.30;;
38358;SDS011;42072;48.044;14.416;2023-04-03T02:15:47;6.97;;;5.07;;
38358;SDS011;42072;48.044;14.416;2023-04-03T02:18:14;8.25;;;5.20;;
38358;SDS011;42072;48.044;14.416;2023-04-03T02:20:42;6.78;;;5.15;;
38358;SDS011;42072;48.044;14.416;2023-04-03T02:23:09;6.60;;;5.22;;
38358;SDS011;42072;48.044;14.416;2023-04-03T02:25:36;7.03;;;5.05;;
38358;SDS011;42072;48.044;14.416;2023-04-03T02:28:04;6.47;;;4.70;;
38358;SDS011;42072;48.044;14.416;2023-04-03T02:30:32;8.43;;;5.20;;
38358;SDS011;42072;48.044;14.416;2023-04-03T02:33:00;5.97;;;4.55;;
38358;SDS011;42072;48.044;14.416;2023-04-03T02:35:27;5.55;;;4.13;;
38358;SDS011;42072;48.044;14.416;2023-04-03T02:37:54;7.35;;;4.00;;
38358;SDS011;42072;48.044;14.416;2023-04-03T02:40:22;5.28;;;3.70;;
38358;SDS011;42072;48.044;14.416;2023-04-03T02:42:49;5.63;;;3.95;;
38358;SDS011;42072;48.044;14.416;2023-04-03T02:45:16;6.57;;;3.60;;
38358;SDS011;42072;48.044;14.416;2023-04-03T02:47:43;4.90;;;3.60;;
38358;SDS011;42072;48.044;14.416;2023-04-03T02:50:10;4.78;;;3.40;;
38358;SDS011;42072;48.044;14.416;2023-04-03T02:52:37;10.38;;;3.63;;
38358;SDS011;42072;48.044;14.416;2023-04-03T02:55:05;4.55;;;3.25;;
38358;SDS011;42072;48.044;14.416;2023-04-03T02:57:32;5.47;;;3.75;;
38358;SDS011;42072;48.044;14.416;2023-04-03T03:00:00;6.72;;;4.00;;
38358;SDS011;42072;48.044;14.416;2023-04-03T03:02:27;7.38;;;4.30;;
38358;SDS011;42072;48.044;14.416;2023-04-03T03:04:54;7.53;;;4.00;;
38358;SDS011;42072;48.044;14.416;2023-04-03T03:07:21;8.70;;;4.30;;
38358;SDS011;42072;48.044;14.416;2023-04-03T03:09:48;11.50;;;4.53;;
38358;SDS011;42072;48.044;14.416;2023-04-03T03:12:16;7.25;;;3.60;;
38358;SDS011;42072;48.044;14.416;2023-04-03T03:14:48;6.25;;;4.20;;
38358;SDS011;42072;48.044;14.416;2023-04-03T03:17:16;6.22;;;3.90;;
38358;SDS011;42072;48.044;14.416;2023-04-03T03:19:44;8.40;;;3.67;;
38358;SDS011;42072;48.044;14.416;2023-04-03T03:22:12;8.80;;;3.85;;
38358;SDS011;42072;48.044;14.416;2023-04-03T03:24:39;8.07;;;4.63;;
38358;SDS011;42072;48.044;14.416;2023-04-03T03:27:06;8.05;;;4.13;;
38358;SDS011;42072;48.044;14.416;2023-04-03T03:29:33;7.00;;;3.70;;
38358;SDS011;42072;48.044;14.416;2023-04-03T03:32:00;5.32;;;4.03;;
38358;SDS011;42072;48.044;14.416;2023-04-03T03:34:28;5.95;;;4.05;;
38358;SDS011;42072;48.044;14.416;2023-04-03T03:36:55;8.25;;;4.53;;
38358;SDS011;42072;48.044;14.416;2023-04-03T03:39:22;8.77;;;4.65;;
38358;SDS011;42072;48.044;14.416;2023-04-03T03:41:49;7.22;;;4.38;;
38358;SDS011;42072;48.044;14.416;2023-04-03T03:44:17;5.35;;;4.13;;
38358;SDS011;42072;48.044;14.416;2023-04-03T03:46:44;5.88;;;4.32;;
38358;SDS011;42072;48.044;14.416;2023-04-03T03:49:11;4.80;;;4.05;;
38358;SDS011;42072;48.044;14.416;2023-04-03T03:51:38;5.82;;;3.92;;
38358;SDS011;42072;48.044;14.416;2023-04-03T03:54:07;5.88;;;4.05;;
38358;SDS011;42072;48.044;14.416;2023-04-03T03:56:34;8.57;;;5.50;;
38358;SDS011;42072;48.044;14.416;2023-04-03T03:59:01;6.55;;;4.25;;
38358;SDS011;42072;48.044;14.416;2023-04-03T04:01:29;6.05;;;3.88;;
38358;SDS011;42072;48.044;14.416;2023-04-03T04:03:56;5.45;;;3.33;;
38358;SDS011;42072;48.044;14.416;2023-04-03T04:06:24;5.15;;;3.67;;
38358;SDS011;42072;48.044;14.416;2023-04-03T04:08:51;6.03;;;3.83;;
38358;SDS011;42072;48.044;14.416;2023-04-03T04:11:18;5.93;;;4.13;;
38358;SDS011;42072;48.044;14.416;2023-04-03T04:13:46;5.85;;;4.22;;
38358;SDS011;42072;48.044;14.416;2023-04-03T04:16:14;6.80;;;4.00;;
38358;SDS011;42072;48.044;14.416;2023-04-03T04:18:41;7.28;;;4.30;;
38358;SDS011;42072;48.044;14.416;2023-04-03T04:21:08;7.05;;;4.68;;
38358;SDS011;42072;48.044;14.416;2023-04-03T04:23:35;5.80;;;4.07;;
38358;SDS011;42072;48.044;14.416;2023-04-03T04:26:02;6.05;;;3.90;;
38358;SDS011;42072;48.044;14.416;2023-04-03T04:28:30;4.68;;;3.60;;
38358;SDS011;42072;48.044;14.416;2023-04-03T04:30:57;5.35;;;3.50;;
38358;SDS011;42072;48.044;14.416;2023-04-03T04:33:24;7.18;;;4.00;;
38358;SDS011;42072;48.044;14.416;2023-04-03T04:35:52;5.35;;;3.97;;
38358;SDS011;42072;48.044;14.416;2023-04-03T04:38:19;5.45;;;3.70;;
38358;SDS011;42072;48.044;14.416;2023-04-03T04:40:47;7.78;;;4.72;;
38358;SDS011;42072;48.044;14.416;2023-04-03T04:43:15;5.10;;;3.83;;
38358;SDS011;42072;48.044;14.416;2023-04-03T04:45:42;6.40;;;4.32;;
38358;SDS011;42072;48.044;14.416;2023-04-03T04:48:10;5.88;;;4.28;;
38358;SDS011;42072;48.044;14.416;2023-04-03T04:50:37;7.07;;;4.63;;
38358;SDS011;42072;48.044;14.416;2023-04-03T04:53:04;6.88;;;4.90;;
38358;SDS011;42072;48.044;14.416;2023-04-03T04:55:31;6.65;;;4.65;;
38358;SDS011;42072;48.044;14.416;2023-04-03T04:57:59;7.68;;;5.22;;
38358;SDS011;42072;48.044;14.416;2023-04-03T05:00:26;6.70;;;4.60;;
38358;SDS011;42072;48.044;14.416;2023-04-03T05:02:53;6.85;;;4.43;;
38358;SDS011;42072;48.044;14.416;2023-04-03T05:05:20;6.25;;;4.90;;
38358;SDS011;42072;48.044;14.416;2023-04-03T05:07:48;8.75;;;4.70;;
38358;SDS011;42072;48.044;14.416;2023-04-03T05:10:15;6.03;;;4.93;;
38358;SDS011;42072;48.044;14.416;2023-04-03T05:12:43;12.02;;;5.15;;
38358;SDS011;42072;48.044;14.416;2023-04-03T05:15:10;7.95;;;5.13;;
38358;SDS011;42072;48.044;14.416;2023-04-03T05:17:38;7.43;;;4.80;;
38358;SDS011;42072;48.044;14.416;2023-04-03T05:20:06;9.30;;;5.63;;
38358;SDS011;42072;48.044;14.416;2023-04-03T05:22:33;7.57;;;4.88;;
38358;SDS011;42072;48.044;14.416;2023-04-03T05:25:00;7.82;;;4.80;;
38358;SDS011;42072;48.044;14.416;2023-04-03T05:27:28;5.97;;;4.43;;
38358;SDS011;42072;48.044;14.416;2023-04-03T05:29:55;7.50;;;5.15;;
38358;SDS011;42072;48.044;14.416;2023-04-03T05:32:22;5.88;;;4.18;;
38358;SDS011;42072;48.044;14.416;2023-04-03T05:34:51;5.85;;;4.40;;
38358;SDS011;42072;48.044;14.416;2023-04-03T05:37:19;7.68;;;4.53;;
38358;SDS011;42072;48.044;14.416;2023-04-03T05:39:46;6.10;;;4.60;;
38358;SDS011;42072;48.044;14.416;2023-04-03T05:42:14;7.35;;;5.35;;
38358;SDS011;42072;48.044;14.416;2023-04-03T05:44:42;10.90;;;5.47;;
38358;SDS011;42072;48.044;14.416;2023-04-03T05:47:09;7.20;;;4.28;;
38358;SDS011;42072;48.044;14.416;2023-04-03T05:49:36;8.75;;;5.03;;
38358;SDS011;42072;48.044;14.416;2023-04-03T05:52:23;5.85;;;4.10;;
38358;SDS011;42072;48.044;14.416;2023-04-03T05:54:56;4.63;;;3.53;;
38358;SDS011;42072;48.044;14.416;2023-04-03T05:57:23;8.18;;;4.10;;
38358;SDS011;42072;48.044;14.416;2023-04-03T05:59:51;6.78;;;3.60;;
38358;SDS011;42072;48.044;14.416;2023-04-03T06:02:22;5.45;;;3.53;;
38358;SDS011;42072;48.044;14.416;2023-04-03T06:04:51;6.15;;;4.00;;
38358;SDS011;42072;48.044;14.416;2023-04-03T06:07:22;5.93;;;3.47;;
38358;SDS011;42072;48.044;14.416;2023-04-03T06:09:53;6.75;;;4.15;;
38358;SDS011;42072;48.044;14.416;2023-04-03T06:12:22;7.57;;;4.20;;
38358;SDS011;42072;48.044;14.416;2023-04-03T06:14:50;5.53;;;3.90;;
38358;SDS011;42072;48.044;14.416;2023-04-03T06:17:17;5.65;;;4.10;;
38358;SDS011;42072;48.044;14.416;2023-04-03T06:19:45;6.10;;;4.03;;
38358;SDS011;42072;48.044;14.416;2023-04-03T06:22:13;6.72;;;4.03;;
38358;SDS011;42072;48.044;14.416;2023-04-03T06:24:40;5.32;;;3.90;;
38358;SDS011;42072;48.044;14.416;2023-04-03T06:27:08;6.38;;;4.22;;
38358;SDS011;42072;48.044;14.416;2023-04-03T06:29:37;5.78;;;3.60;;
38358;SDS011;42072;48.044;14.416;2023-04-03T06:32:05;7.60;;;4.07;;
38358;SDS011;42072;48.044;14.416;2023-04-03T06:34:32;5.43;;;3.70;;
38358;SDS011;42072;48.044;14.416;2023-04-03T06:37:00;8.60;;;4.25;;
38358;SDS011;42072;48.044;14.416;2023-04-03T06:39:27;8.32;;;3.75;;
38358;SDS011;42072;48.044;14.416;2023-04-03T06:41:54;5.70;;;4.07;;
38358;SDS011;42072;48.044;14.416;2023-04-03T06:44:21;7.63;;;3.92;;
38358;SDS011;42072;48.044;14.416;2023-04-03T06:46:48;5.03;;;3.20;;
38358;SDS011;42072;48.044;14.416;2023-04-03T06:49:16;6.30;;;3.55;;
38358;SDS011;42072;48.044;14.416;2023-04-03T06:51:43;6.35;;;3.60;;
38358;SDS011;42072;48.044;14.416;2023-04-03T06:54:10;5.10;;;3.50;;
38358;SDS011;42072;48.044;14.416;2023-04-03T06:56:37;5.25;;;3.10;;
38358;SDS011;42072;48.044;14.416;2023-04-03T06:59:05;4.57;;;3.30;;
38358;SDS011;42072;48.044;14.416;2023-04-03T07:01:32;6.20;;;3.53;;
38358;SDS011;42072;48.044;14.416;2023-04-03T07:03:59;4.32;;;3.40;;
38358;SDS011;42072;48.044;14.416;2023-04-03T07:06:26;5.75;;;4.00;;
38358;SDS011;42072;48.044;14.416;2023-04-03T07:08:54;5.40;;;3.35;;
38358;SDS011;42072;48.044;14.416;2023-04-03T07:11:22;4.60;;;3.53;;
38358;SDS011;42072;48.044;14.416;2023-04-03T07:13:49;4.15;;;3.20;;
38358;SDS011;42072;48.044;14.416;2023-04-03T07:16:17;5.07;;;3.63;;
38358;SDS011;42072;48.044;14.416;2023-04-03T07:18:45;4.13;;;3.35;;
38358;SDS011;42072;48.044;14.416;2023-04-03T07:21:12;6.63;;;5.95;;
38358;SDS011;42072;48.044;14.416;2023-04-03T07:23:40;4.53;;;2.80;;
38358;SDS011;42072;48.044;14.416;2023-04-03T07:26:07;3.03;;;2.60;;
38358;SDS011;42072;48.044;14.416;2023-04-03T07:28:34;3.60;;;2.60;;
38358;SDS011;42072;48.044;14.416;2023-04-03T07:31:04;5.18;;;3.10;;
38358;SDS011;42072;48.044;14.416;2023-04-03T07:33:35;5.07;;;3.28;;
38358;SDS011;42072;48.044;14.416;2023-04-03T07:36:04;4.50;;;2.70;;
38358;SDS011;42072;48.044;14.416;2023-04-03T07:38:34;6.20;;;3.40;;
38358;SDS011;42072;48.044;14.416;2023-04-03T07:41:02;6.00;;;3.30;;
38358;SDS011;42072;48.044;14.416;2023-04-03T07:43:30;6.45;;;3.25;;
38358;SDS011;42072;48.044;14.416;2023-04-03T07:45:57;8.82;;;4.50;;
38358;SDS011;42072;48.044;14.416;2023-04-03T07:48:25;8.63;;;4.10;;
38358;SDS011;42072;48.044;14.416;2023-04-03T07:50:52;8.00;;;3.42;;
38358;SDS011;42072;48.044;14.416;2023-04-03T07:53:20;5.90;;;3.47;;
38358;SDS011;42072;48.044;14.416;2023-04-03T07:55:48;4.70;;;3.45;;
38358;SDS011;42072;48.044;14.416;2023-04-03T07:58:18;9.63;;;3.60;;
38358;SDS011;42072;48.044;14.416;2023-04-03T08:00:45;5.93;;;3.17;;
38358;SDS011;42072;48.044;14.416;2023-04-03T08:03:13;4.18;;;3.15;;
38358;SDS011;42072;48.044;14.416;2023-04-03T08:05:44;5.85;;;3.65;;
38358;SDS011;42072;48.044;14.416;2023-04-03T08:08:15;5.13;;;3.33;;
38358;SDS011;42072;48.044;14.416;2023-04-03T08:10:50;5.72;;;4.45;;
38358;SDS011;42072;48.044;14.416;2023-04-03T08:13:19;7.10;;;4.57;;
38358;SDS011;42072;48.044;14.416;2023-04-03T08:15:47;5.07;;;2.78;;
38358;SDS011;42072;48.044;14.416;2023-04-03T08:18:14;2.30;;;1.83;;
38358;SDS011;42072;48.044;14.416;2023-04-03T08:20:42;5.90;;;3.15;;
38358;SDS011;42072;48.044;14.416;2023-04-03T08:23:10;7.20;;;3.78;;
38358;SDS011;42072;48.044;14.416;2023-04-03T08:25:41;9.05;;;4.38;;
38358;SDS011;42072;48.044;14.416;2023-04-03T08:28:10;10.10;;;4.68;;
38358;SDS011;42072;48.044;14.416;2023-04-03T08:30:40;11.07;;;7.35;;
38358;SDS011;42072;48.044;14.416;2023-04-03T08:33:09;13.43;;;7.00;;
38358;SDS011;42072;48.044;14.416;2023-04-03T08:35:40;9.35;;;5.60;;
38358;SDS011;42072;48.044;14.416;2023-04-03T08:38:09;9.65;;;5.75;;
38358;SDS011;42072;48.044;14.416;2023-04-03T08:40:37;10.68;;;5.90;;
38358;SDS011;42072;48.044;14.416;2023-04-03T08:43:12;9.98;;;5.75;;
38358;SDS011;42072;48.044;14.416;2023-04-03T08:46:04;12.80;;;6.03;;
38358;SDS011;42072;48.044;14.416;2023-04-03T08:48:41;9.65;;;5.50;;
38358;SDS011;42072;48.044;14.416;2023-04-03T08:51:17;9.88;;;6.35;;
38358;SDS011;42072;48.044;14.416;2023-04-03T08:54:06;10.55;;;6.47;;
38358;SDS011;42072;48.044;14.416;2023-04-03T08:56:44;11.55;;;6.57;;
38358;SDS011;42072;48.044;14.416;2023-04-03T08:59:12;7.43;;;3.72;;
38358;SDS011;42072;48.044;14.416;2023-04-03T09:01:44;5.45;;;3.05;;
38358;SDS011;42072;48.044;14.416;2023-04-03T09:04:13;6.53;;;2.85;;
38358;SDS011;42072;48.044;14.416;2023-04-03T09:06:44;3.15;;;2.50;;
38358;SDS011;42072;48.044;14.416;2023-04-03T09:18:47;4.90;;;2.90;;
38358;SDS011;42072;48.044;14.416;2023-04-03T09:23:58;3.80;;;2.35;;
38358;SDS011;42072;48.044;14.416;2023-04-03T09:26:32;4.50;;;2.78;;
38358;SDS011;42072;48.044;14.416;2023-04-03T09:29:21;4.13;;;2.30;;
38358;SDS011;42072;48.044;14.416;2023-04-03T09:31:50;2.70;;;2.20;;
38358;SDS011;42072;48.044;14.416;2023-04-03T09:34:25;5.80;;;2.58;;
38358;SDS011;42072;48.044;14.416;2023-04-03T09:37:02;4.53;;;2.38;;
38358;SDS011;42072;48.044;14.416;2023-04-03T09:39:33;3.75;;;2.50;;
38358;SDS011;42072;48.044;14.416;2023-04-03T09:42:21;3.97;;;2.60;;
38358;SDS011;42072;48.044;14.416;2023-04-03T09:44:55;6.00;;;2.05;;
38358;SDS011;42072;48.044;14.416;2023-04-03T09:47:28;5.55;;;2.22;;
38358;SDS011;42072;48.044;14.416;2023-04-03T09:52:41;5.15;;;2.42;;
38358;SDS011;42072;48.044;14.416;2023-04-03T09:55:14;5.25;;;2.50;;
38358;SDS011;42072;48.044;14.416;2023-04-03T09:57:46;3.38;;;2.00;;
38358;SDS011;42072;48.044;14.416;2023-04-03T10:00:22;5.70;;;2.63;;
38358;SDS011;42072;48.044;14.416;2023-04-03T10:02:54;6.30;;;3.55;;
38358;SDS011;42072;48.044;14.416;2023-04-03T10:05:28;5.05;;;2.78;;
38358;SDS011;42072;48.044;14.416;2023-04-03T10:10:40;3.70;;;1.98;;
38358;SDS011;42072;48.044;14.416;2023-04-03T10:16:11;4.07;;;2.22;;
38358;SDS011;42072;48.044;14.416;2023-04-03T10:18:42;3.47;;;1.80;;
38358;SDS011;42072;48.044;14.416;2023-04-03T10:35:30;25.83;;;10.07;;
38358;SDS011;42072;48.044;14.416;2023-04-03T10:43:44;4.72;;;1.85;;
38358;SDS011;42072;48.044;14.416;2023-04-03T10:51:51;4.78;;;2.05;;
38358;SDS011;42072;48.044;14.416;2023-04-03T10:54:54;8.40;;;4.70;;
38358;SDS011;42072;48.044;14.416;2023-04-03T10:57:27;21.98;;;8.43;;
38358;SDS011;42072;48.044;14.416;2023-04-03T10:59:57;2.83;;;1.73;;
38358;SDS011;42072;48.044;14.416;2023-04-03T11:02:48;8.27;;;3.63;;
38358;SDS011;42072;48.044;14.416;2023-04-03T11:05:34;2.30;;;1.58;;
38358;SDS011;42072;48.044;14.416;2023-04-03T11:10:55;4.32;;;2.35;;
38358;SDS011;42072;48.044;14.416;2023-04-03T11:13:43;5.25;;;2.58;;
38358;SDS011;42072;48.044;14.416;2023-04-03T11:16:30;3.55;;;1.77;;
38358;SDS011;42072;48.044;14.416;2023-04-03T11:21:54;2.10;;;1.50;;
38358;SDS011;42072;48.044;14.416;2023-04-03T11:24:27;3.30;;;1.90;;
38358;SDS011;42072;48.044;14.416;2023-04-03T11:26:59;5.15;;;2.03;;
38358;SDS011;42072;48.044;14.416;2023-04-03T11:29:36;3.65;;;1.52;;
38358;SDS011;42072;48.044;14.416;2023-04-03T11:34:56;3.35;;;1.98;;
38358;SDS011;42072;48.044;14.416;2023-04-03T11:37:43;3.22;;;1.90;;
38358;SDS011;42072;48.044;14.416;2023-04-03T11:42:42;6.28;;;1.95;;
38358;SDS011;42072;48.044;14.416;2023-04-03T11:47:55;2.75;;;1.70;;
38358;SDS011;42072;48.044;14.416;2023-04-03T11:58:19;5.28;;;2.33;;
38358;SDS011;42072;48.044;14.416;2023-04-03T12:03:30;4.80;;;2.13;;
38358;SDS011;42072;48.044;14.416;2023-04-03T12:24:24;3.33;;;2.00;;
38358;SDS011;42072;48.044;14.416;2023-04-03T12:29:55;3.15;;;2.03;;
38358;SDS011;42072;48.044;14.416;2023-04-03T12:32:47;3.25;;;1.83;;
38358;SDS011;42072;48.044;14.416;2023-04-03T12:35:40;2.70;;;2.00;;
38358;SDS011;42072;48.044;14.416;2023-04-03T12:46:59;4.45;;;2.00;;
38358;SDS011;42072;48.044;14.416;2023-04-03T12:51:55;2.28;;;1.70;;
38358;SDS011;42072;48.044;14.416;2023-04-03T12:54:24;5.00;;;2.05;;
38358;SDS011;42072;48.044;14.416;2023-04-03T12:59:38;4.40;;;2.30;;
38358;SDS011;42072;48.044;14.416;2023-04-03T13:07:25;4.95;;;2.33;;
38358;SDS011;42072;48.044;14.416;2023-04-03T13:10:02;2.47;;;2.00;;
38358;SDS011;42072;48.044;14.416;2023-04-03T13:12:44;1.63;;;1.30;;
38358;SDS011;42072;48.044;14.416;2023-04-03T13:17:49;2.97;;;2.20;;
38358;SDS011;42072;48.044;14.416;2023-04-03T13:25:36;7.65;;;4.43;;
38358;SDS011;42072;48.044;14.416;2023-04-03T13:28:10;2.67;;;1.88;;
38358;SDS011;42072;48.044;14.416;2023-04-03T13:30:49;3.47;;;2.00;;
38358;SDS011;42072;48.044;14.416;2023-04-03T13:33:24;2.28;;;1.63;;
38358;SDS011;42072;48.044;14.416;2023-04-03T13:36:16;4.97;;;2.10;;
38358;SDS011;42072;48.044;14.416;2023-04-03T13:38:45;3.22;;;1.88;;
38358;SDS011;42072;48.044;14.416;2023-04-03T13:41:24;4.38;;;2.55;;
38358;SDS011;42072;48.044;14.416;2023-04-03T13:43:55;4.13;;;2.35;;
38358;SDS011;42072;48.044;14.416;2023-04-03T13:46:31;3.35;;;2.25;;
38358;SDS011;42072;48.044;14.416;2023-04-03T13:48:59;4.15;;;2.25;;
38358;SDS011;42072;48.044;14.416;2023-04-03T13:51:48;4.28;;;2.03;;
38358;SDS011;42072;48.044;14.416;2023-04-03T13:54:36;3.63;;;2.30;;
38358;SDS011;42072;48.044;14.416;2023-04-03T13:57:12;4.18;;;1.98;;
38358;SDS011;42072;48.044;14.416;2023-04-03T13:59:42;5.35;;;2.47;;
38358;SDS011;42072;48.044;14.416;2023-04-03T14:02:20;4.47;;;2.17;;
38358;SDS011;42072;48.044;14.416;2023-04-03T14:04:56;2.85;;;2.10;;
38358;SDS011;42072;48.044;14.416;2023-04-03T14:07:28;4.72;;;1.95;;
38358;SDS011;42072;48.044;14.416;2023-04-03T14:09:57;2.75;;;1.95;;
38358;SDS011;42072;48.044;14.416;2023-04-03T14:12:26;3.22;;;1.77;;
38358;SDS011;42072;48.044;14.416;2023-04-03T14:15:05;4.10;;;2.20;;
38358;SDS011;42072;48.044;14.416;2023-04-03T14:17:43;4.25;;;2.20;;
38358;SDS011;42072;48.044;14.416;2023-04-03T14:20:21;6.85;;;2.47;;
38358;SDS011;42072;48.044;14.416;2023-04-03T14:22:51;3.03;;;1.90;;
38358;SDS011;42072;48.044;14.416;2023-04-03T14:25:20;3.03;;;2.10;;
38358;SDS011;42072;48.044;14.416;2023-04-03T14:27:51;5.30;;;2.20;;
38358;SDS011;42072;48.044;14.416;2023-04-03T14:32:54;4.38;;;2.08;;
38358;SDS011;42072;48.044;14.416;2023-04-03T14:35:22;3.55;;;2.10;;
38358;SDS011;42072;48.044;14.416;2023-04-03T14:37:51;7.15;;;2.65;;
38358;SDS011;42072;48.044;14.416;2023-04-03T14:40:21;3.17;;;2.20;;
38358;SDS011;42072;48.044;14.416;2023-04-03T14:42:51;4.40;;;2.90;;
38358;SDS011;42072;48.044;14.416;2023-04-03T14:45:22;3.67;;;2.38;;
38358;SDS011;42072;48.044;14.416;2023-04-03T14:47:51;6.00;;;2.90;;
38358;SDS011;42072;48.044;14.416;2023-04-03T14:50:21;4.20;;;2.50;;
38358;SDS011;42072;48.044;14.416;2023-04-03T14:52:51;3.28;;;2.45;;
38358;SDS011;42072;48.044;14.416;2023-04-03T14:55:21;4.13;;;2.45;;
38358;SDS011;42072;48.044;14.416;2023-04-03T14:57:52;4.85;;;1.90;;
38358;SDS011;42072;48.044;14.416;2023-04-03T15:00:21;2.97;;;2.25;;
38358;SDS011;42072;48.044;14.416;2023-04-03T15:02:48;2.67;;;1.40;;
38358;SDS011;42072;48.044;14.416;2023-04-03T15:05:16;3.13;;;1.98;;
38358;SDS011;42072;48.044;14.416;2023-04-03T15:07:50;3.50;;;2.35;;
38358;SDS011;42072;48.044;14.416;2023-04-03T15:12:54;3.55;;;2.33;;
38358;SDS011;42072;48.044;14.416;2023-04-03T15:15:23;2.75;;;2.30;;
38358;SDS011;42072;48.044;14.416;2023-04-03T15:17:52;3.83;;;1.95;;
38358;SDS011;42072;48.044;14.416;2023-04-03T15:20:23;5.20;;;2.38;;
38358;SDS011;42072;48.044;14.416;2023-04-03T15:22:53;10.77;;;3.05;;
38358;SDS011;42072;48.044;14.416;2023-04-03T15:25:23;5.35;;;2.75;;
38358;SDS011;42072;48.044;14.416;2023-04-03T15:27:52;9.60;;;3.13;;
38358;SDS011;42072;48.044;14.416;2023-04-03T15:30:23;5.30;;;3.20;;
38358;SDS011;42072;48.044;14.416;2023-04-03T15:32:50;2.55;;;1.90;;
38358;SDS011;42072;48.044;14.416;2023-04-03T15:35:17;3.45;;;1.55;;
38358;SDS011;42072;48.044;14.416;2023-04-03T15:37:45;4.90;;;3.08;;
38358;SDS011;42072;48.044;14.416;2023-04-03T15:40:12;4.85;;;2.72;;
38358;SDS011;42072;48.044;14.416;2023-04-03T15:42:40;3.38;;;2.38;;
38358;SDS011;42072;48.044;14.416;2023-04-03T15:45:07;4.97;;;2.40;;
38358;SDS011;42072;48.044;14.416;2023-04-03T15:47:35;3.95;;;2.88;;
38358;SDS011;42072;48.044;14.416;2023-04-03T15:50:02;5.13;;;2.92;;
38358;SDS011;42072;48.044;14.416;2023-04-03T15:52:33;3.80;;;2.95;;
38358;SDS011;42072;48.044;14.416;2023-04-03T15:55:01;5.47;;;2.92;;
38358;SDS011;42072;48.044;14.416;2023-04-03T15:57:28;4.00;;;2.72;;
38358;SDS011;42072;48.044;14.416;2023-04-03T16:00:00;3.80;;;2.22;;
38358;SDS011;42072;48.044;14.416;2023-04-03T16:02:27;3.28;;;2.17;;
38358;SDS011;42072;48.044;14.416;2023-04-03T16:04:55;4.75;;;2.90;;
38358;SDS011;42072;48.044;14.416;2023-04-03T16:07:22;4.13;;;2.80;;
38358;SDS011;42072;48.044;14.416;2023-04-03T16:09:49;4.35;;;2.53;;
38358;SDS011;42072;48.044;14.416;2023-04-03T16:12:16;3.83;;;2.47;;
38358;SDS011;42072;48.044;14.416;2023-04-03T16:14:43;3.80;;;2.30;;
38358;SDS011;42072;48.044;14.416;2023-04-03T16:17:10;3.50;;;2.45;;
38358;SDS011;42072;48.044;14.416;2023-04-03T16:19:38;2.60;;;1.75;;
38358;SDS011;42072;48.044;14.416;2023-04-03T16:22:05;4.07;;;2.72;;
38358;SDS011;42072;48.044;14.416;2023-04-03T16:24:32;3.13;;;2.40;;
38358;SDS011;42072;48.044;14.416;2023-04-03T16:27:00;6.15;;;2.35;;
38358;SDS011;42072;48.044;14.416;2023-04-03T16:29:27;4.25;;;2.50;;
38358;SDS011;42072;48.044;14.416;2023-04-03T16:31:54;3.15;;;2.13;;
38358;SDS011;42072;48.044;14.416;2023-04-03T16:34:24;4.93;;;2.67;;
38358;SDS011;42072;48.044;14.416;2023-04-03T16:36:52;6.45;;;3.15;;
38358;SDS011;42072;48.044;14.416;2023-04-03T16:39:19;4.15;;;2.58;;
38358;SDS011;42072;48.044;14.416;2023-04-03T16:41:47;4.90;;;2.47;;
38358;SDS011;42072;48.044;14.416;2023-04-03T16:44:14;4.38;;;2.80;;
38358;SDS011;42072;48.044;14.416;2023-04-03T16:46:41;5.32;;;2.60;;
38358;SDS011;42072;48.044;14.416;2023-04-03T16:49:11;4.93;;;3.20;;
38358;SDS011;42072;48.044;14.416;2023-04-03T16:51:38;5.97;;;2.78;;
38358;SDS011;42072;48.044;14.416;2023-04-03T16:54:06;6.38;;;2.95;;
38358;SDS011;42072;48.044;14.416;2023-04-03T16:56:33;4.47;;;2.90;;
38358;SDS011;42072;48.044;14.416;2023-04-03T16:59:01;4.88;;;2.78;;